Time,TemperatureF,DewpointF,PressureIn,WindDirection,WindDirectionDegrees,WindSpeedMPH,WindSpeedGustMPH,Humidity,HourlyPrecipIn,Conditions,Clouds,dailyrainin,SoftwareType,DateUTC
2013-04-25 00:05:00,42.1,29.0,29.96,NNE,22,0.0,0.0,59,0.00,,,0.00,weatherlink.com 1.10,2013-04-25 07:05:00,
2013-04-25 00:20:00,41.8,28.0,29.96,NNE,24,0.0,1.0,59,0.00,,,0.00,weatherlink.com 1.10,2013-04-25 07:20:00,
2013-04-25 00:36:00,43.1,28.0,29.96,NNE,29,0.0,1.0,56,0.00,,,0.00,weatherlink.com 1.10,2013-04-25 07:36:00,
2013-04-25 00:51:00,43.4,28.0,29.96,ENE,57,0.0,2.0,55,0.00,,,0.00,weatherlink.com 1.10,2013-04-25 07:51:00,
2013-04-25 01:06:00,42.6,28.0,29.96,ESE,103,2.0,3.0,56,0.00,,,0.00,weatherlink.com 1.10,2013-04-25 08:06:00,
2013-04-25 01:21:00,42.5,28.0,29.96,SE,126,1.0,4.0,56,0.00,,,0.00,weatherlink.com 1.10,2013-04-25 08:21:00,
2013-04-25 01:36:00,42.5,28.0,29.96,SE,128,1.0,2.0,56,0.00,,,0.00,weatherlink.com 1.10,2013-04-25 08:36:00,
2013-04-25 01:52:00,42.2,27.0,29.96,SE,127,0.0,2.0,56,0.00,,,0.00,weatherlink.com 1.10,2013-04-25 08:52:00,
2013-04-25 02:07:00,41.5,28.0,29.96,SE,128,0.0,0.0,58,0.00,,,0.00,weatherlink.com 1.10,2013-04-25 09:07:00,
2013-04-25 02:21:00,40.0,28.0,29.96,SE,126,0.0,0.0,62,0.00,,,0.00,weatherlink.com 1.10,2013-04-25 09:21:00,
2013-04-25 02:36:00,39.9,28.0,29.96,SE,128,0.0,0.0,62,0.00,,,0.00,weatherlink.com 1.10,2013-04-25 09:36:00,
2013-04-25 02:51:00,39.7,27.0,29.95,SE,128,0.0,0.0,62,0.00,,,0.00,weatherlink.com 1.10,2013-04-25 09:51:00,
2013-04-25 03:07:00,38.7,28.0,29.95,SE,128,0.0,0.0,65,0.00,,,0.00,weatherlink.com 1.10,2013-04-25 10:07:00,
2013-04-25 03:22:00,38.4,28.0,29.95,SE,128,0.0,0.0,66,0.00,,,0.00,weatherlink.com 1.10,2013-04-25 10:22:00,
2013-04-25 03:38:00,37.9,28.0,29.95,SE,128,0.0,0.0,67,0.00,,,0.00,weatherlink.com 1.10,2013-04-25 10:38:00,
2013-04-25 03:53:00,37.0,27.0,29.96,SE,128,0.0,0.0,67,0.00,,,0.00,weatherlink.com 1.10,2013-04-25 10:53:00,
2013-04-25 04:08:00,36.5,27.0,29.95,SE,127,0.0,0.0,69,0.00,,,0.00,weatherlink.com 1.10,2013-04-25 11:08:00,
2013-04-25 04:23:00,37.2,27.0,29.96,SE,128,0.0,0.0,67,0.00,,,0.00,weatherlink.com 1.10,2013-04-25 11:23:00,
2013-04-25 04:38:00,38.0,28.0,29.96,SE,128,0.0,0.0,67,0.00,,,0.00,weatherlink.com 1.10,2013-04-25 11:38:00,
2013-04-25 04:53:00,38.8,28.0,29.96,SE,128,0.0,0.0,65,0.00,,,0.00,weatherlink.com 1.10,2013-04-25 11:53:00,
2013-04-25 05:08:00,38.7,28.0,29.96,SE,126,0.0,0.0,65,0.00,,,0.00,weatherlink.com 1.10,2013-04-25 12:08:00,
2013-04-25 05:24:00,38.5,28.0,29.96,SE,128,0.0,0.0,65,0.00,,,0.00,weatherlink.com 1.10,2013-04-25 12:24:00,
2013-04-25 05:39:00,38.4,27.0,29.96,SE,132,2.0,4.0,64,0.00,,,0.00,weatherlink.com 1.10,2013-04-25 12:39:00,
2013-04-25 05:54:00,38.2,28.0,29.96,SE,133,0.0,1.0,66,0.00,,,0.00,weatherlink.com 1.10,2013-04-25 12:54:00,
2013-04-25 06:09:00,38.6,27.0,29.96,SE,133,0.0,1.0,64,0.00,,,0.00,weatherlink.com 1.10,2013-04-25 13:09:00,
2013-04-25 06:24:00,38.3,28.0,29.96,SE,133,0.0,0.0,67,0.00,,,0.00,weatherlink.com 1.10,2013-04-25 13:24:00,
2013-04-25 06:39:00,37.0,29.0,29.96,SE,133,0.0,1.0,73,0.00,,,0.00,weatherlink.com 1.10,2013-04-25 13:39:00,
2013-04-25 06:54:00,37.2,30.0,29.97,SE,133,0.0,1.0,74,0.00,,,0.00,weatherlink.com 1.10,2013-04-25 13:54:00,
2013-04-25 07:09:00,38.9,30.0,29.97,SE,133,0.0,2.0,70,0.00,,,0.00,weatherlink.com 1.10,2013-04-25 14:09:00,
2013-04-25 07:24:00,40.0,29.0,29.97,SE,133,0.0,2.0,66,0.00,,,0.00,weatherlink.com 1.10,2013-04-25 14:24:00,
2013-04-25 07:39:00,41.0,32.0,29.97,SE,133,0.0,1.0,71,0.00,,,0.00,weatherlink.com 1.10,2013-04-25 14:39:00,
2013-04-25 07:54:00,41.7,31.0,29.97,SE,133,0.0,0.0,66,0.00,,,0.00,weatherlink.com 1.10,2013-04-25 14:54:00,
2013-04-25 08:10:00,42.5,31.0,29.97,SE,133,0.0,0.0,64,0.00,,,0.00,weatherlink.com 1.10,2013-04-25 15:10:00,
2013-04-25 08:25:00,43.7,29.0,29.97,SE,133,1.0,3.0,56,0.00,,,0.00,weatherlink.com 1.10,2013-04-25 15:25:00,
2013-04-25 08:40:00,45.1,30.0,29.97,SE,134,1.0,2.0,55,0.00,,,0.00,weatherlink.com 1.10,2013-04-25 15:40:00,
2013-04-25 08:55:00,48.2,31.0,29.97,SE,134,0.0,0.0,51,0.00,,,0.00,weatherlink.com 1.10,2013-04-25 15:55:00,
2013-04-25 09:10:00,51.0,31.0,29.97,SE,134,0.0,0.0,47,0.00,,,0.00,weatherlink.com 1.10,2013-04-25 16:10:00,
2013-04-25 09:25:00,53.3,32.0,29.97,SE,134,0.0,0.0,44,0.00,,,0.00,weatherlink.com 1.10,2013-04-25 16:25:00,
2013-04-25 09:41:00,53.8,33.0,29.97,SE,134,0.0,3.0,46,0.00,,,0.00,weatherlink.com 1.10,2013-04-25 16:41:00,
2013-04-25 09:56:00,55.3,34.0,29.96,SE,134,0.0,2.0,44,0.00,,,0.00,weatherlink.com 1.10,2013-04-25 16:56:00,
2013-04-25 10:11:00,57.3,35.0,29.96,SE,134,0.0,0.0,43,0.00,,,0.00,weatherlink.com 1.10,2013-04-25 17:11:00,
2013-04-25 10:26:00,60.4,32.0,29.97,SE,134,0.0,4.0,35,0.00,,,0.00,weatherlink.com 1.10,2013-04-25 17:26:00,
2013-04-25 10:41:00,63.2,34.0,29.96,SE,134,0.0,2.0,34,0.00,,,0.00,weatherlink.com 1.10,2013-04-25 17:41:00,
2013-04-25 10:57:00,64.8,36.0,29.97,SE,134,2.0,4.0,34,0.00,,,0.00,weatherlink.com 1.10,2013-04-25 17:57:00,
2013-04-25 11:12:00,64.7,35.0,29.96,SSE,152,0.0,6.0,33,0.00,,,0.00,weatherlink.com 1.10,2013-04-25 18:12:00,
2013-04-25 11:27:00,64.8,34.0,29.96,NW,313,2.0,6.0,32,0.00,,,0.00,weatherlink.com 1.10,2013-04-25 18:27:00,
2013-04-25 11:42:00,65.7,36.0,29.96,NW,321,4.0,6.0,33,0.00,,,0.00,weatherlink.com 1.10,2013-04-25 18:42:00,
2013-04-25 11:57:00,67.0,38.0,29.96,NNW,328,0.0,7.0,34,0.00,,,0.00,weatherlink.com 1.10,2013-04-25 18:57:00,
2013-04-25 12:12:00,68.0,38.0,29.96,NNW,343,0.0,7.0,33,0.00,,,0.00,weatherlink.com 1.10,2013-04-25 19:12:00,
2013-04-25 12:27:00,69.9,40.0,29.96,NW,322,6.0,8.0,34,0.00,,,0.00,weatherlink.com 1.10,2013-04-25 19:27:00,
2013-04-25 12:44:00,70.0,38.0,29.95,NNW,329,2.0,7.0,31,0.00,,,0.00,weatherlink.com 1.10,2013-04-25 19:44:00,
2013-04-25 12:59:00,71.0,39.0,29.95,NNW,334,1.0,5.0,31,0.00,,,0.00,weatherlink.com 1.10,2013-04-25 19:59:00,
2013-04-25 13:14:00,74.3,41.0,29.95,NNE,25,0.0,5.0,30,0.00,,,0.00,weatherlink.com 1.10,2013-04-25 20:14:00,
2013-04-25 13:29:00,72.1,38.0,29.94,NW,311,6.0,10.0,29,0.00,,,0.00,weatherlink.com 1.10,2013-04-25 20:29:00,
2013-04-25 13:44:00,72.5,40.0,29.94,NW,315,7.0,13.0,31,0.00,,,0.00,weatherlink.com 1.10,2013-04-25 20:44:00,
2013-04-25 13:59:00,71.3,39.0,29.94,NW,304,9.0,15.0,31,0.00,,,0.00,weatherlink.com 1.10,2013-04-25 20:59:00,
2013-04-25 14:14:00,71.3,40.0,29.95,NW,325,12.0,15.0,32,0.00,,,0.00,weatherlink.com 1.10,2013-04-25 21:14:00,
2013-04-25 14:29:00,72.2,41.0,29.95,NNW,329,9.0,22.0,32,0.00,,,0.00,weatherlink.com 1.10,2013-04-25 21:29:00,
2013-04-25 14:44:00,71.9,43.0,29.95,NW,318,14.0,18.0,35,0.00,,,0.00,weatherlink.com 1.10,2013-04-25 21:44:00,
2013-04-25 14:59:00,72.5,39.0,29.95,NNW,327,6.0,21.0,30,0.00,,,0.00,weatherlink.com 1.10,2013-04-25 21:59:00,
2013-04-25 15:14:00,73.4,40.0,29.95,NW,321,3.0,15.0,30,0.00,,,0.00,weatherlink.com 1.10,2013-04-25 22:14:00,
2013-04-25 15:29:00,72.9,41.0,29.94,NNW,334,11.0,17.0,32,0.00,,,0.00,weatherlink.com 1.10,2013-04-25 22:29:00,
2013-04-25 15:44:00,72.8,40.0,29.94,WNW,294,16.0,17.0,31,0.00,,,0.00,weatherlink.com 1.10,2013-04-25 22:44:00,
2013-04-25 16:00:00,73.3,40.0,29.94,NW,323,10.0,18.0,30,0.00,,,0.00,weatherlink.com 1.10,2013-04-25 23:00:00,
2013-04-25 16:15:00,73.3,42.0,29.93,NW,320,8.0,16.0,32,0.00,,,0.00,weatherlink.com 1.10,2013-04-25 23:15:00,
2013-04-25 16:30:00,73.1,40.0,29.93,NW,322,5.0,19.0,30,0.00,,,0.00,weatherlink.com 1.10,2013-04-25 23:30:00,
2013-04-25 16:45:00,72.5,38.0,29.93,NW,323,11.0,21.0,29,0.00,,,0.00,weatherlink.com 1.10,2013-04-25 23:45:00,
2013-04-25 17:00:00,71.8,39.0,29.94,NW,305,10.0,18.0,30,0.00,,,0.00,weatherlink.com 1.10,2013-04-26 00:00:00,
2013-04-25 17:15:00,69.9,39.0,29.94,NW,311,18.0,18.0,32,0.00,,,0.00,weatherlink.com 1.10,2013-04-26 00:15:00,
2013-04-25 17:30:00,70.6,39.0,29.95,NW,312,8.0,22.0,32,0.00,,,0.00,weatherlink.com 1.10,2013-04-26 00:30:00,
2013-04-25 17:45:00,70.3,38.0,29.95,WNW,299,14.0,23.0,31,0.00,,,0.00,weatherlink.com 1.10,2013-04-26 00:45:00,
2013-04-25 18:01:00,69.3,39.0,29.96,NW,324,11.0,17.0,33,0.00,,,0.00,weatherlink.com 1.10,2013-04-26 01:01:00,
2013-04-25 18:16:00,68.5,39.0,29.96,NW,322,12.0,20.0,34,0.00,,,0.00,weatherlink.com 1.10,2013-04-26 01:16:00,
2013-04-25 18:31:00,68.0,38.0,29.97,NW,321,9.0,20.0,34,0.00,,,0.00,weatherlink.com 1.10,2013-04-26 01:31:00,
2013-04-25 18:46:00,67.4,37.0,29.97,NW,304,13.0,19.0,33,0.00,,,0.00,weatherlink.com 1.10,2013-04-26 01:46:00,
2013-04-25 19:01:00,65.9,37.0,29.97,NW,304,9.0,18.0,34,0.00,,,0.00,weatherlink.com 1.10,2013-04-26 02:01:00,
2013-04-25 19:17:00,64.8,36.0,29.97,WNW,283,11.0,16.0,35,0.00,,,0.00,weatherlink.com 1.10,2013-04-26 02:17:00,
2013-04-25 19:32:00,63.2,36.0,29.98,WNW,302,8.0,15.0,37,0.00,,,0.00,weatherlink.com 1.10,2013-04-26 02:32:00,
2013-04-25 19:47:00,61.7,36.0,29.99,NW,304,9.0,14.0,39,0.00,,,0.00,weatherlink.com 1.10,2013-04-26 02:47:00,
2013-04-25 20:02:00,60.7,36.0,29.99,NW,309,6.0,12.0,40,0.00,,,0.00,weatherlink.com 1.10,2013-04-26 03:02:00,
2013-04-25 20:17:00,60.2,36.0,30.00,NW,317,8.0,12.0,41,0.00,,,0.00,weatherlink.com 1.10,2013-04-26 03:17:00,
2013-04-25 20:32:00,60.4,36.0,30.01,NW,307,8.0,14.0,41,0.00,,,0.00,weatherlink.com 1.10,2013-04-26 03:32:00,
2013-04-25 20:47:00,60.1,36.0,30.01,NW,315,8.0,14.0,41,0.00,,,0.00,weatherlink.com 1.10,2013-04-26 03:47:00,
2013-04-25 21:05:00,59.6,36.0,30.02,NW,318,8.0,15.0,42,0.00,,,0.00,weatherlink.com 1.10,2013-04-26 04:05:00,
2013-04-25 21:19:00,59.0,37.0,30.03,NW,311,0.0,9.0,44,0.00,,,0.00,weatherlink.com 1.10,2013-04-26 04:19:00,
2013-04-25 21:34:00,57.8,37.0,30.04,WNW,302,2.0,7.0,47,0.00,,,0.00,weatherlink.com 1.10,2013-04-26 04:34:00,
2013-04-25 21:50:00,57.1,37.0,30.04,NW,315,8.0,11.0,48,0.00,,,0.00,weatherlink.com 1.10,2013-04-26 04:50:00,
2013-04-25 22:03:00,57.1,38.0,30.03,NW,310,8.0,14.0,49,0.00,,,0.00,weatherlink.com 1.10,2013-04-26 05:03:00,
2013-04-25 22:20:00,57.7,38.0,30.04,NW,324,7.0,14.0,48,0.00,,,0.00,weatherlink.com 1.10,2013-04-26 05:20:00,
2013-04-25 22:35:00,56.7,39.0,30.04,NW,315,0.0,7.0,51,0.00,,,0.00,weatherlink.com 1.10,2013-04-26 05:35:00,
2013-04-25 22:49:00,56.1,38.0,30.05,NW,314,0.0,1.0,52,0.00,,,0.00,weatherlink.com 1.10,2013-04-26 05:49:00,
2013-04-25 23:04:00,55.3,38.0,30.04,NW,315,0.0,2.0,53,0.00,,,0.00,weatherlink.com 1.10,2013-04-26 06:04:00,
2013-04-25 23:19:00,54.2,38.0,30.04,NW,315,0.0,1.0,55,0.00,,,0.00,weatherlink.com 1.10,2013-04-26 06:19:00,
2013-04-25 23:34:00,53.9,38.0,30.05,NW,315,0.0,0.0,55,0.00,,,0.00,weatherlink.com 1.10,2013-04-26 06:34:00,
2013-04-25 23:49:00,53.1,38.0,30.05,WNW,300,0.0,1.0,56,0.00,,,0.00,weatherlink.com 1.10,2013-04-26 06:49:00,